createdAt,value
2022-09-30T00:01:03.328Z,94911.00
2022-09-30T00:03:01.923Z,94917.28
2022-09-30T00:05:01.489Z,94926.69
2022-09-30T00:06:59.720Z,94928.00
2022-09-30T00:08:58.583Z,94926.69
2022-09-30T00:11:01.662Z,94926.38
2022-09-30T00:12:59.974Z,94925.84
2022-09-30T00:14:58.280Z,94923.03
2022-09-30T00:16:56.369Z,94925.38
2022-09-30T00:18:56.604Z,94930.16
2022-09-30T00:20:57.396Z,94922.91
2022-09-30T00:22:55.542Z,94928.50
2022-09-30T00:24:53.770Z,94932.47
2022-09-30T00:26:52.033Z,94932.28
2022-09-30T00:28:51.556Z,94929.13
2022-09-30T00:30:49.713Z,94928.94
2022-09-30T00:32:47.956Z,94933.41
2022-09-30T00:34:46.207Z,94936.53
2022-09-30T00:36:47.551Z,94935.72
2022-09-30T00:38:45.823Z,94926.31
2022-09-30T00:40:44.258Z,94928.44
2022-09-30T00:42:42.936Z,94926.13
2022-09-30T00:44:51.038Z,94925.97
2022-09-30T00:46:49.380Z,94930.28
2022-09-30T00:48:54.107Z,94932.13
2022-09-30T00:50:55.616Z,94929.97
2022-09-30T00:53:01.730Z,94922.53
2022-09-30T00:55:02.368Z,94919.56
2022-09-30T00:57:03.986Z,94913.28
2022-09-30T00:59:07.735Z,94924.34
2022-09-30T01:01:07.584Z,94928.63
2022-09-30T01:03:07.220Z,94929.13
2022-09-30T01:05:09.633Z,94919.50
2022-09-30T01:07:08.966Z,94917.84
2022-09-30T01:09:09.490Z,94911.94
2022-09-30T01:11:08.441Z,94920.53
2022-09-30T01:13:07.321Z,94923.16
2022-09-30T01:15:11.905Z,94918.69
2022-09-30T01:17:16.613Z,94919.19
2022-09-30T01:19:41.275Z,94920.19
2022-09-30T01:22:00.167Z,94924.78
2022-09-30T01:24:32.898Z,94934.88
2022-09-30T01:27:05.914Z,94943.59
2022-09-30T01:29:27.808Z,94934.50
2022-09-30T01:31:44.226Z,94938.78
2022-09-30T01:33:53.081Z,94940.19
2022-09-30T01:36:14.658Z,94932.22
2022-09-30T01:38:17.253Z,94933.56
2022-09-30T01:40:23.858Z,94932.56
2022-09-30T01:42:31.901Z,94936.19
2022-09-30T01:44:36.519Z,94933.50
2022-09-30T01:46:41.838Z,94939.97
2022-09-30T01:48:47.614Z,94938.78
2022-09-30T01:50:51.869Z,94933.16
2022-09-30T01:52:54.620Z,94928.22
2022-09-30T01:55:00.498Z,94931.47
2022-09-30T01:57:04.874Z,94934.44
2022-09-30T01:59:07.870Z,94935.44
2022-09-30T02:01:11.391Z,94935.47
2022-09-30T02:03:17.949Z,94937.63
2022-09-30T02:05:21.489Z,94938.28
2022-09-30T02:07:25.225Z,94933.59
2022-09-30T02:09:28.802Z,94934.09
2022-09-30T02:11:29.993Z,94937.84
2022-09-30T02:13:33.184Z,94940.97
2022-09-30T02:15:40.381Z,94936.50
2022-09-30T02:17:45.267Z,94946.56
2022-09-30T02:19:47.377Z,94944.75
2022-09-30T02:21:52.329Z,94948.53
2022-09-30T02:23:55.019Z,94949.34
2022-09-30T02:25:59.591Z,94947.69
2022-09-30T02:28:01.818Z,94955.41
2022-09-30T02:30:04.172Z,94952.97
2022-09-30T02:32:06.694Z,94959.47
2022-09-30T02:34:08.838Z,94959.66
2022-09-30T02:36:12.063Z,94949.56
2022-09-30T02:38:14.939Z,94958.44
2022-09-30T02:40:18.780Z,94950.50
2022-09-30T02:42:21.523Z,94949.22
2022-09-30T02:44:20.042Z,94943.44
2022-09-30T02:46:27.391Z,94947.59
2022-09-30T02:48:32.100Z,94946.41
2022-09-30T02:50:35.241Z,94942.94
2022-09-30T02:52:43.404Z,94954.63
2022-09-30T02:54:51.825Z,94961.72
2022-09-30T02:56:54.711Z,94967.97
2022-09-30T02:58:54.634Z,94958.41
2022-09-30T03:00:54.101Z,94956.91
2022-09-30T03:02:58.863Z,94959.94
2022-09-30T03:04:57.170Z,94957.91
2022-09-30T03:06:56.132Z,94966.44
2022-09-30T03:08:55.797Z,94968.25
2022-09-30T03:10:54.089Z,94973.72
2022-09-30T03:13:10.722Z,94976.44
2022-09-30T03:15:26.358Z,94975.75
2022-09-30T03:17:52.032Z,94972.69
2022-09-30T03:20:07.367Z,94968.47
2022-09-30T03:22:24.765Z,94965.31
2022-09-30T03:24:49.405Z,94973.97
2022-09-30T03:26:57.497Z,94964.28
2022-09-30T03:29:11.762Z,94963.53
2022-09-30T03:31:18.527Z,94967.47
2022-09-30T03:33:24.473Z,94967.47
2022-09-30T03:35:32.214Z,94962.75
2022-09-30T03:37:43.560Z,94967.72
2022-09-30T03:39:55.701Z,94962.97
2022-09-30T03:41:59.189Z,94966.97
2022-09-30T03:44:04.435Z,94963.03
2022-09-30T03:46:13.544Z,94974.59
2022-09-30T03:48:14.192Z,94979.19
2022-09-30T03:50:17.386Z,95000.47
2022-09-30T03:52:16.690Z,94996.78
2022-09-30T03:54:16.592Z,94998.59
2022-09-30T03:56:16.339Z,94990.06
2022-09-30T03:58:14.529Z,94984.78
2022-09-30T04:00:14.596Z,94989.75
2022-09-30T04:02:13.857Z,94988.69
2022-09-30T04:04:12.496Z,94993.84
2022-09-30T04:06:13.896Z,95004.53
2022-09-30T04:08:12.499Z,94998.31
2022-09-30T04:10:11.222Z,94985.50
2022-09-30T04:12:11.778Z,94988.97
2022-09-30T04:14:10.284Z,94993.38
2022-09-30T04:16:09.168Z,94998.81
2022-09-30T04:18:07.803Z,94999.78
2022-09-30T04:20:07.054Z,94991.72
2022-09-30T04:22:05.397Z,94989.38
2022-09-30T04:24:03.598Z,94982.03
2022-09-30T04:26:02.325Z,94977.22
2022-09-30T04:28:02.339Z,94989.44
2022-09-30T04:30:00.530Z,94999.88
2022-09-30T04:31:58.608Z,94996.44
2022-09-30T04:33:58.326Z,95010.63
2022-09-30T04:35:56.946Z,95003.91
2022-09-30T04:37:55.164Z,95010.31
2022-09-30T04:39:53.361Z,95004.69
2022-09-30T04:41:54.040Z,95007.28
2022-09-30T04:43:53.739Z,95016.78
2022-09-30T04:45:53.939Z,95022.38
2022-09-30T04:47:52.306Z,95022.25
2022-09-30T04:49:50.538Z,95026.13
2022-09-30T04:51:48.767Z,95024.53
2022-09-30T04:53:48.158Z,95025.50
2022-09-30T04:55:47.099Z,95032.97
2022-09-30T04:57:46.236Z,95048.81
2022-09-30T04:59:45.735Z,95042.50
2022-09-30T05:01:44.758Z,95044.16
2022-09-30T05:03:44.047Z,95042.31
2022-09-30T05:05:45.471Z,95040.38
2022-09-30T05:07:45.499Z,95043.47
2022-09-30T05:09:44.503Z,95038.56
2022-09-30T05:11:42.957Z,95038.38
2022-09-30T05:13:43.041Z,95043.00
2022-09-30T05:15:42.546Z,95045.31
2022-09-30T05:17:40.715Z,95072.03
2022-09-30T05:19:38.990Z,95069.69
2022-09-30T05:21:37.424Z,95061.81
2022-09-30T05:23:35.729Z,95062.03
2022-09-30T05:25:35.673Z,95051.81
2022-09-30T05:27:34.014Z,95050.09
2022-09-30T05:29:32.167Z,95067.44
2022-09-30T05:31:31.658Z,95072.66
2022-09-30T05:33:30.885Z,95062.56
2022-09-30T05:35:29.815Z,95067.97
2022-09-30T05:37:27.846Z,95057.50
2022-09-30T05:39:26.173Z,95070.16
2022-09-30T05:41:24.533Z,95090.66
2022-09-30T05:43:22.993Z,95083.47
2022-09-30T05:45:21.145Z,95088.00
2022-09-30T05:47:20.977Z,95083.16
2022-09-30T05:49:19.360Z,95086.13
2022-09-30T05:51:17.609Z,95089.44
2022-09-30T05:53:15.847Z,95094.13
2022-09-30T05:55:14.080Z,95089.19
2022-09-30T05:57:15.416Z,95083.44
2022-09-30T05:59:13.733Z,95089.94
2022-09-30T06:01:14.389Z,95096.91
2022-09-30T06:03:14.265Z,95094.63
2022-09-30T06:05:13.513Z,95092.88
2022-09-30T06:07:11.683Z,95098.69
2022-09-30T06:09:10.019Z,95098.41
2022-09-30T06:11:12.940Z,95092.31
2022-09-30T06:13:11.979Z,95098.59
2022-09-30T06:15:11.145Z,95098.72
2022-09-30T06:17:09.278Z,95097.97
2022-09-30T06:19:08.937Z,95101.84
2022-09-30T06:21:07.394Z,95111.44
2022-09-30T06:23:06.015Z,95100.16
2022-09-30T06:25:06.029Z,95106.63
2022-09-30T06:27:04.585Z,95109.44
2022-09-30T06:29:02.629Z,95110.44
2022-09-30T06:31:00.779Z,95116.38
2022-09-30T06:32:59.707Z,95124.16
2022-09-30T06:34:59.305Z,95133.88
2022-09-30T06:36:57.439Z,95127.25
2022-09-30T06:38:55.667Z,95136.06
2022-09-30T06:40:53.948Z,95127.34
2022-09-30T06:42:52.223Z,95129.63
2022-09-30T06:44:53.374Z,95133.78
2022-09-30T06:46:54.145Z,95129.47
2022-09-30T06:49:08.117Z,95150.34
2022-09-30T06:51:11.066Z,95156.38
2022-09-30T06:53:10.283Z,95140.72
2022-09-30T06:55:10.446Z,95162.28
2022-09-30T06:57:08.819Z,95166.13
2022-09-30T06:59:07.172Z,95163.19
2022-09-30T07:01:07.364Z,95169.47
2022-09-30T07:03:10.069Z,95167.41
2022-09-30T07:05:09.299Z,95159.66
2022-09-30T07:07:09.045Z,95165.63
2022-09-30T07:09:07.571Z,95179.09
2022-09-30T07:11:11.894Z,95181.03
2022-09-30T07:13:10.909Z,95175.78
2022-09-30T07:15:13.555Z,95180.59
2022-09-30T07:17:12.159Z,95183.03
2022-09-30T07:19:12.731Z,95183.03
2022-09-30T07:21:12.342Z,95176.28
2022-09-30T07:23:14.097Z,95182.75
2022-09-30T07:25:12.322Z,95176.78
2022-09-30T07:27:12.420Z,95181.69
2022-09-30T07:29:10.508Z,95187.75
2022-09-30T07:31:31.977Z,95189.22
2022-09-30T07:33:32.341Z,95183.41
2022-09-30T07:35:31.204Z,95185.09
2022-09-30T07:37:32.713Z,95188.25
2022-09-30T07:39:32.861Z,95189.44
2022-09-30T07:41:31.235Z,95189.34
2022-09-30T07:43:35.155Z,95182.03
2022-09-30T07:45:33.436Z,95198.78
2022-09-30T07:47:31.594Z,95197.34
2022-09-30T07:49:30.067Z,95193.22
2022-09-30T07:51:31.532Z,95193.56
2022-09-30T07:53:29.712Z,95192.41
2022-09-30T07:55:29.271Z,95192.09
2022-09-30T07:57:27.465Z,95191.97
2022-09-30T07:59:25.791Z,95187.66
2022-09-30T08:01:24.503Z,95189.31
2022-09-30T08:03:22.794Z,95192.78
2022-09-30T08:05:20.961Z,95203.06
2022-09-30T08:07:19.928Z,95198.34
2022-09-30T08:09:21.195Z,95205.41
2022-09-30T08:11:21.221Z,95204.03
2022-09-30T08:13:20.259Z,95205.47
2022-09-30T08:15:18.460Z,95204.31
2022-09-30T08:17:16.612Z,95207.78
2022-09-30T08:19:17.111Z,95211.75
2022-09-30T08:21:15.694Z,95206.19
2022-09-30T08:23:13.937Z,95219.31
2022-09-30T08:25:12.717Z,95208.69
2022-09-30T08:27:12.351Z,95214.34
2022-09-30T08:29:20.042Z,95219.25
2022-09-30T08:31:20.558Z,95224.03
2022-09-30T08:33:18.749Z,95226.41
2022-09-30T08:35:17.075Z,95222.06
2022-09-30T08:37:15.241Z,95225.34
2022-09-30T08:39:13.509Z,95226.59
2022-09-30T08:41:28.512Z,95222.47
2022-09-30T08:43:37.622Z,95224.75
2022-09-30T08:45:44.994Z,95223.94
2022-09-30T08:47:51.447Z,95227.44
2022-09-30T08:50:01.026Z,95224.25
2022-09-30T08:52:02.278Z,95224.34
2022-09-30T08:54:04.351Z,95219.28
2022-09-30T08:56:04.564Z,95220.13
2022-09-30T08:58:04.849Z,95231.47
2022-09-30T09:00:10.568Z,95228.13
2022-09-30T09:02:20.487Z,95229.94
2022-09-30T09:04:19.832Z,95224.50
2022-09-30T09:06:25.474Z,95228.69
2022-09-30T09:08:34.130Z,95231.56
2022-09-30T09:10:43.190Z,95229.25
2022-09-30T09:12:53.728Z,95233.38
2022-09-30T09:15:04.124Z,95222.56
2022-09-30T09:17:16.367Z,95226.78
2022-09-30T09:19:18.392Z,95229.34
2022-09-30T09:21:25.155Z,95228.50
2022-09-30T09:23:24.006Z,95224.06
2022-09-30T09:25:28.053Z,95231.06
2022-09-30T09:27:42.862Z,95226.63
2022-09-30T09:29:47.225Z,95229.34
2022-09-30T09:31:45.599Z,95233.69
2022-09-30T09:33:47.255Z,95233.50
2022-09-30T09:35:55.459Z,95226.44
2022-09-30T09:38:31.917Z,95228.09
2022-09-30T09:40:38.548Z,95216.31
2022-09-30T09:42:51.208Z,95217.66
2022-09-30T09:44:55.644Z,95214.28
2022-09-30T09:47:05.123Z,95223.91
2022-09-30T09:49:33.751Z,95226.81
2022-09-30T09:51:35.296Z,95224.09
2022-09-30T09:53:48.872Z,95213.47
2022-09-30T09:55:47.537Z,95207.06
2022-09-30T09:57:46.315Z,95205.88
2022-09-30T09:59:58.563Z,95205.00
2022-09-30T10:01:57.075Z,95217.91
2022-09-30T10:04:09.851Z,95211.88
2022-09-30T10:06:12.956Z,95213.53
2022-09-30T10:08:12.616Z,95222.72
2022-09-30T10:10:23.367Z,95218.44
2022-09-30T10:12:29.526Z,95217.06
2022-09-30T10:14:27.794Z,95218.56
2022-09-30T10:16:33.022Z,95209.78
2022-09-30T10:18:34.456Z,95203.06
2022-09-30T10:20:35.381Z,95208.47
2022-09-30T10:22:36.226Z,95203.72
2022-09-30T10:24:39.653Z,95204.28
2022-09-30T10:26:48.809Z,95202.44
2022-09-30T10:28:50.878Z,95193.13
2022-09-30T10:30:54.527Z,95188.41
2022-09-30T10:32:53.272Z,95190.38
2022-09-30T10:34:57.651Z,95191.91
2022-09-30T10:36:57.677Z,95194.91
2022-09-30T10:39:05.670Z,95192.09
2022-09-30T10:41:06.777Z,95196.78
2022-09-30T10:43:05.018Z,95199.31
2022-09-30T10:45:10.158Z,95193.81
2022-09-30T10:47:10.850Z,95197.03
2022-09-30T10:49:11.992Z,95191.53
2022-09-30T10:51:25.674Z,95201.94
2022-09-30T10:53:26.431Z,95197.28
2022-09-30T10:55:32.829Z,95197.28
2022-09-30T10:57:34.541Z,95194.81
2022-09-30T10:59:38.325Z,95195.06
2022-09-30T11:01:39.828Z,95199.75
2022-09-30T11:03:45.155Z,95203.00
2022-09-30T11:05:45.507Z,95208.44
2022-09-30T11:07:48.595Z,95200.06
2022-09-30T11:09:56.160Z,95195.66
2022-09-30T11:12:01.281Z,95194.19
2022-09-30T11:14:08.676Z,95194.38
2022-09-30T11:16:17.641Z,95189.53
2022-09-30T11:18:23.501Z,95191.66
2022-09-30T11:20:26.272Z,95192.09
2022-09-30T11:22:41.603Z,95199.25
2022-09-30T11:24:42.902Z,95197.28
2022-09-30T11:26:51.078Z,95188.72
2022-09-30T11:29:13.546Z,95202.78
2022-09-30T11:31:22.893Z,95203.44
2022-09-30T11:33:41.790Z,95205.38
2022-09-30T11:35:50.167Z,95203.94
2022-09-30T11:38:07.792Z,95206.31
2022-09-30T11:40:25.309Z,95206.19
2022-09-30T11:42:29.709Z,95208.31
2022-09-30T11:44:35.297Z,95208.44
2022-09-30T11:46:56.602Z,95210.31
2022-09-30T11:49:14.381Z,95211.84
2022-09-30T11:51:21.684Z,95204.19
2022-09-30T11:53:31.620Z,95206.66
2022-09-30T11:55:49.431Z,95204.06
2022-09-30T11:57:54.602Z,95197.03
2022-09-30T12:00:00.479Z,95201.84
2022-09-30T12:02:03.130Z,95207.00
2022-09-30T12:04:06.730Z,95207.16
2022-09-30T12:06:12.206Z,95209.50
2022-09-30T12:08:16.056Z,95204.00
2022-09-30T12:10:22.655Z,95205.81
2022-09-30T12:12:23.406Z,95214.03
2022-09-30T12:14:27.051Z,95212.28
2022-09-30T12:16:29.252Z,95211.78
2022-09-30T12:18:33.973Z,95206.03
2022-09-30T12:20:36.306Z,95215.19
2022-09-30T12:22:40.675Z,95225.63
2022-09-30T12:24:41.200Z,95217.00
2022-09-30T12:26:41.610Z,95219.50
2022-09-30T12:29:03.741Z,95220.50
2022-09-30T12:31:12.432Z,95220.72
2022-09-30T12:33:29.272Z,95217.81
2022-09-30T12:36:09.593Z,95220.63
2022-09-30T12:38:28.450Z,95225.59
2022-09-30T12:40:43.068Z,95230.66
2022-09-30T12:43:07.128Z,95229.81
2022-09-30T12:45:50.252Z,95230.75
2022-09-30T12:47:51.674Z,95222.06
2022-09-30T12:49:52.335Z,95220.13
2022-09-30T12:51:52.524Z,95227.75
2022-09-30T12:53:55.483Z,95232.69
2022-09-30T12:55:54.883Z,95222.28
2022-09-30T12:57:54.577Z,95229.25
2022-09-30T12:59:56.347Z,95219.50
2022-09-30T13:01:55.086Z,95225.88
2022-09-30T13:04:10.534Z,95221.75
2022-09-30T13:06:10.471Z,95232.22
2022-09-30T13:08:11.505Z,95224.94
2022-09-30T13:10:28.117Z,95224.31
2022-09-30T13:12:29.194Z,95226.75
2022-09-30T13:14:35.948Z,95227.44
2022-09-30T13:17:01.315Z,95224.56
2022-09-30T13:19:03.625Z,95222.34
2022-09-30T13:21:26.831Z,95221.88
2022-09-30T13:23:37.687Z,95231.00
2022-09-30T13:25:54.851Z,95221.75
2022-09-30T13:27:55.632Z,95224.94
2022-09-30T13:29:54.462Z,95223.06
2022-09-30T13:32:11.973Z,95230.59
2022-09-30T13:34:13.220Z,95232.47
2022-09-30T13:36:31.580Z,95234.22
2022-09-30T13:38:38.341Z,95233.00
2022-09-30T13:41:00.835Z,95244.97
2022-09-30T13:43:04.764Z,95235.84
2022-09-30T13:45:07.443Z,95238.16
2022-09-30T13:47:16.504Z,95238.84
2022-09-30T13:49:21.176Z,95228.84
2022-09-30T13:51:24.180Z,95236.91
2022-09-30T13:53:30.680Z,95229.72
2022-09-30T13:55:34.843Z,95237.59
2022-09-30T13:57:40.932Z,95228.16
2022-09-30T14:00:00.894Z,95241.63
2022-09-30T14:02:22.625Z,95252.19
2022-09-30T14:04:52.994Z,95248.13
2022-09-30T14:07:05.453Z,95252.31
2022-09-30T14:09:29.726Z,95253.94
2022-09-30T14:11:54.745Z,95252.69
2022-09-30T14:14:06.265Z,95253.94
2022-09-30T14:16:34.439Z,95259.72
2022-09-30T14:18:45.366Z,95260.25
2022-09-30T14:21:01.968Z,95252.19
2022-09-30T14:23:00.343Z,95260.22
2022-09-30T14:25:00.105Z,95262.50
2022-09-30T14:27:23.472Z,95265.72
2022-09-30T14:29:29.938Z,95265.94
2022-09-30T14:31:29.206Z,95264.97
2022-09-30T14:33:28.540Z,95272.84
2022-09-30T14:35:29.735Z,95271.81
2022-09-30T14:37:30.493Z,95273.03
2022-09-30T14:39:32.338Z,95270.47
2022-09-30T14:41:32.022Z,95271.53
2022-09-30T14:43:35.894Z,95266.13
2022-09-30T14:45:43.390Z,95274.25
2022-09-30T14:47:46.727Z,95271.19
2022-09-30T14:49:45.303Z,95277.84
2022-09-30T14:51:47.194Z,95272.28
2022-09-30T14:53:55.186Z,95276.69
2022-09-30T14:55:53.610Z,95282.06
2022-09-30T14:57:53.133Z,95280.00
2022-09-30T14:59:51.313Z,95284.00
2022-09-30T15:01:52.519Z,95289.63
2022-09-30T15:03:55.502Z,95290.06
2022-09-30T15:05:53.897Z,95294.84
2022-09-30T15:07:52.208Z,95290.31
2022-09-30T15:09:51.057Z,95289.28
2022-09-30T15:11:49.577Z,95287.00
2022-09-30T15:13:49.995Z,95286.81
2022-09-30T15:15:48.320Z,95290.13
2022-09-30T15:17:46.581Z,95286.41
2022-09-30T15:19:45.330Z,95292.81
2022-09-30T15:21:44.804Z,95293.47
2022-09-30T15:23:48.269Z,95289.94
2022-09-30T15:25:46.784Z,95303.16
2022-09-30T15:27:45.375Z,95303.16
2022-09-30T15:29:56.988Z,95306.47
2022-09-30T15:32:01.189Z,95311.41
2022-09-30T15:34:04.977Z,95312.06
2022-09-30T15:36:03.980Z,95318.88
2022-09-30T15:38:10.910Z,95322.75
2022-09-30T15:40:36.107Z,95325.03
2022-09-30T15:42:36.375Z,95328.09
2022-09-30T15:44:39.357Z,95337.56
2022-09-30T15:46:40.642Z,95334.25
2022-09-30T15:48:44.862Z,95335.66
2022-09-30T15:50:45.096Z,95337.91
2022-09-30T15:52:43.629Z,95339.53
2022-09-30T15:54:41.815Z,95341.53
2022-09-30T15:56:40.127Z,95342.16
2022-09-30T15:58:39.487Z,95343.19
2022-09-30T16:00:40.181Z,95341.50
2022-09-30T16:02:39.837Z,95346.78
2022-09-30T16:04:39.005Z,95353.97
2022-09-30T16:06:45.903Z,95361.34
2022-09-30T16:08:47.758Z,95369.13
2022-09-30T16:10:50.434Z,95369.47
2022-09-30T16:12:49.631Z,95370.28
2022-09-30T16:14:50.119Z,95379.72
2022-09-30T16:16:55.099Z,95379.47
2022-09-30T16:18:56.432Z,95381.66
2022-09-30T16:20:59.386Z,95387.16
2022-09-30T16:22:59.361Z,95392.28
2022-09-30T16:25:04.995Z,95386.22
2022-09-30T16:27:30.221Z,95393.72
2022-09-30T16:29:29.095Z,95392.19
2022-09-30T16:31:27.554Z,95395.47
2022-09-30T16:33:25.843Z,95391.44
2022-09-30T16:35:27.963Z,95393.84
2022-09-30T16:37:26.151Z,95402.66
2022-09-30T16:39:24.394Z,95402.81
2022-09-30T16:41:22.559Z,95401.75
2022-09-30T16:43:20.594Z,95399.19
2022-09-30T16:45:19.376Z,95405.47
2022-09-30T16:47:19.333Z,95409.97
2022-09-30T16:49:19.143Z,95413.69
2022-09-30T16:51:18.726Z,95422.25
2022-09-30T16:53:16.993Z,95416.03
2022-09-30T16:57:18.854Z,95420.03
2022-09-30T16:59:19.216Z,95421.34
2022-09-30T17:01:20.925Z,95427.63
2022-09-30T17:03:21.580Z,95437.38
2022-09-30T17:05:21.690Z,95425.50
2022-09-30T17:07:21.357Z,95418.19
2022-09-30T17:09:19.696Z,95426.16
2022-09-30T17:11:19.698Z,95428.38
2022-09-30T17:13:18.783Z,95428.72
2022-09-30T17:15:17.283Z,95425.75
2022-09-30T17:17:15.486Z,95425.22
2022-09-30T17:19:13.816Z,95417.03
2022-09-30T17:21:12.115Z,95423.00
2022-09-30T17:23:11.913Z,95421.72
2022-09-30T17:25:11.167Z,95424.94
2022-09-30T17:27:09.191Z,95423.84
2022-09-30T17:29:30.857Z,95423.84
2022-09-30T17:31:26.729Z,95420.44
2022-09-30T17:33:24.959Z,95422.28
2022-09-30T17:35:23.363Z,95419.72
2022-09-30T17:37:21.739Z,95423.09
2022-09-30T17:39:21.463Z,95432.47
2022-09-30T17:41:37.022Z,95433.94
2022-09-30T17:43:35.187Z,95440.56
2022-09-30T17:45:33.418Z,95434.78
2022-09-30T17:47:32.415Z,95438.19
2022-09-30T17:49:34.536Z,95454.53
2022-09-30T17:51:32.965Z,95456.41
2022-09-30T17:53:31.985Z,95457.50
2022-09-30T17:55:31.857Z,95465.09
2022-09-30T17:57:30.096Z,95457.56
2022-09-30T17:59:29.090Z,95455.88
2022-09-30T18:01:27.574Z,95463.75
2022-09-30T18:03:28.361Z,95467.78
2022-09-30T18:05:27.419Z,95468.81
2022-09-30T18:07:25.620Z,95475.16
2022-09-30T18:09:24.634Z,95479.34
2022-09-30T18:11:26.149Z,95473.84
2022-09-30T18:13:24.484Z,95487.31
2022-09-30T18:15:22.718Z,95477.97
2022-09-30T18:17:20.903Z,95486.78
2022-09-30T18:19:19.106Z,95492.97
2022-09-30T18:21:17.255Z,95486.16
2022-09-30T18:23:18.900Z,95493.47
2022-09-30T18:25:23.533Z,95485.31
2022-09-30T18:27:24.261Z,95480.81
2022-09-30T18:29:24.348Z,95486.16
2022-09-30T18:31:28.444Z,95481.88
2022-09-30T18:33:26.614Z,95486.94
2022-09-30T18:35:25.538Z,95495.44
2022-09-30T18:37:23.970Z,95491.25
2022-09-30T18:39:22.724Z,95493.63
2022-09-30T18:41:22.450Z,95496.97
2022-09-30T18:43:23.314Z,95491.81
2022-09-30T18:45:21.909Z,95484.38
2022-09-30T18:47:19.926Z,95491.53
2022-09-30T18:49:18.154Z,95491.75
2022-09-30T18:51:18.815Z,95486.44
2022-09-30T18:53:17.744Z,95486.78
2022-09-30T18:55:15.995Z,95500.25
2022-09-30T18:57:14.100Z,95500.28
2022-09-30T18:59:18.318Z,95501.28
2022-09-30T19:01:18.930Z,95515.94
2022-09-30T19:03:17.861Z,95520.25
2022-09-30T19:05:17.948Z,95508.44
2022-09-30T19:07:19.666Z,95510.75
2022-09-30T19:09:17.942Z,95517.44
2022-09-30T19:11:17.573Z,95530.38
2022-09-30T19:13:15.873Z,95510.09
2022-09-30T19:15:16.933Z,95518.91
2022-09-30T19:17:15.884Z,95522.75
2022-09-30T19:19:13.984Z,95531.41
2022-09-30T19:21:15.322Z,95538.75
2022-09-30T19:23:13.483Z,95527.41
2022-09-30T19:25:12.808Z,95516.59
2022-09-30T19:27:12.229Z,95521.75
2022-09-30T19:29:12.046Z,95534.56
2022-09-30T19:31:13.809Z,95530.22
2022-09-30T19:33:11.987Z,95520.78
2022-09-30T19:35:14.080Z,95524.75
2022-09-30T19:37:25.117Z,95520.41
2022-09-30T19:39:29.292Z,95532.22
2022-09-30T19:41:32.346Z,95534.22
2022-09-30T19:43:33.416Z,95533.72
2022-09-30T19:45:31.983Z,95529.41
2022-09-30T19:47:34.376Z,95526.41
2022-09-30T19:49:32.793Z,95523.47
2022-09-30T19:51:33.266Z,95533.63
2022-09-30T19:53:32.342Z,95539.59
2022-09-30T19:55:36.165Z,95532.75
2022-09-30T19:57:37.677Z,95531.28
2022-09-30T19:59:35.923Z,95528.63
2022-09-30T20:01:35.767Z,95531.13
2022-09-30T20:03:36.611Z,95535.41
2022-09-30T20:05:36.053Z,95532.09
2022-09-30T20:07:34.922Z,95531.22
2022-09-30T20:09:33.172Z,95536.72
2022-09-30T20:11:34.586Z,95537.38
2022-09-30T20:13:33.295Z,95536.69
2022-09-30T20:15:48.981Z,95525.25
2022-09-30T20:17:47.656Z,95532.38
2022-09-30T20:20:09.859Z,95537.81
2022-09-30T20:22:08.144Z,95536.50
2022-09-30T20:24:06.777Z,95541.94
2022-09-30T20:26:06.282Z,95548.63
2022-09-30T20:28:05.477Z,95557.25
2022-09-30T20:30:03.803Z,95554.22
2022-09-30T20:32:02.430Z,95554.72
2022-09-30T20:34:01.864Z,95542.56
2022-09-30T20:36:02.593Z,95552.88
2022-09-30T20:38:00.790Z,95560.19
2022-09-30T20:39:59.014Z,95554.53
2022-09-30T20:41:58.753Z,95542.25
2022-09-30T20:43:56.969Z,95540.94
2022-09-30T20:45:56.502Z,95543.94
2022-09-30T20:47:55.307Z,95556.00
2022-09-30T20:49:53.582Z,95545.38
2022-09-30T20:51:53.177Z,95548.69
2022-09-30T20:53:52.921Z,95552.19
2022-09-30T20:55:51.457Z,95555.13
2022-09-30T20:57:49.555Z,95552.63
2022-09-30T20:59:47.778Z,95567.56
2022-09-30T21:01:46.129Z,95568.38
2022-09-30T21:03:45.019Z,95561.41
2022-09-30T21:05:52.862Z,95574.63
2022-09-30T21:07:52.319Z,95577.66
2022-09-30T21:09:50.553Z,95574.63
2022-09-30T21:11:48.808Z,95574.28
2022-09-30T21:13:50.563Z,95570.63
2022-09-30T21:15:48.751Z,95568.03
2022-09-30T21:17:46.989Z,95574.69
2022-09-30T21:19:45.246Z,95571.66
2022-09-30T21:21:43.318Z,95580.88
2022-09-30T21:23:43.568Z,95573.53
2022-09-30T21:25:41.817Z,95580.19
2022-09-30T21:27:40.398Z,95579.66
2022-09-30T21:29:39.228Z,95580.47
2022-09-30T21:31:37.899Z,95577.75
2022-09-30T21:33:36.740Z,95589.69
2022-09-30T21:35:34.874Z,95584.22
2022-09-30T21:37:32.986Z,95587.50
2022-09-30T21:39:32.583Z,95598.03
2022-09-30T21:41:32.098Z,95607.78
2022-09-30T21:43:31.948Z,95601.16
2022-09-30T21:45:30.257Z,95595.56
2022-09-30T21:47:28.918Z,95607.47
2022-09-30T21:49:27.201Z,95611.31
2022-09-30T21:51:28.260Z,95609.38
2022-09-30T21:53:27.304Z,95611.66
2022-09-30T21:55:26.837Z,95612.56
2022-09-30T21:57:25.074Z,95606.03
2022-09-30T21:59:25.378Z,95605.72
2022-09-30T22:01:23.682Z,95609.38
2022-09-30T22:03:23.615Z,95603.84
2022-09-30T22:05:22.049Z,95612.56
2022-09-30T22:07:23.646Z,95618.16
2022-09-30T22:09:21.898Z,95610.38
2022-09-30T22:11:25.277Z,95619.16
2022-09-30T22:13:23.560Z,95629.47
2022-09-30T22:15:21.718Z,95637.03
2022-09-30T22:17:19.932Z,95636.19
2022-09-30T22:19:18.230Z,95634.78
2022-09-30T22:21:16.608Z,95642.72
2022-09-30T22:23:15.346Z,95652.03
2022-09-30T22:25:14.255Z,95642.72
2022-09-30T22:27:14.703Z,95655.50
2022-09-30T22:29:13.686Z,95657.44
2022-09-30T22:31:17.829Z,95655.13
2022-09-30T22:33:33.298Z,95645.34
2022-09-30T22:35:48.739Z,95641.00
2022-09-30T22:38:07.173Z,95641.06
2022-09-30T22:40:10.119Z,95634.69
2022-09-30T22:42:08.420Z,95647.50
2022-09-30T22:44:08.371Z,95654.00
2022-09-30T22:46:08.138Z,95643.22
2022-09-30T22:48:06.452Z,95641.28
2022-09-30T22:50:04.888Z,95635.31
2022-09-30T22:52:03.752Z,95629.59
2022-09-30T22:54:03.373Z,95624.44
2022-09-30T22:56:05.056Z,95627.28
2022-09-30T22:58:03.328Z,95638.09
2022-09-30T23:00:03.745Z,95640.03
2022-09-30T23:02:02.097Z,95652.97
2022-09-30T23:04:00.356Z,95649.94
2022-09-30T23:06:01.710Z,95649.69
2022-09-30T23:07:59.967Z,95660.72
2022-09-30T23:09:58.182Z,95658.47
2022-09-30T23:11:57.107Z,95664.38
2022-09-30T23:13:58.959Z,95667.59
2022-09-30T23:16:00.440Z,95672.31
2022-09-30T23:17:58.641Z,95670.78
2022-09-30T23:19:56.723Z,95672.59
2022-09-30T23:21:54.960Z,95670.34
2022-09-30T23:23:54.119Z,95672.44
2022-09-30T23:25:59.646Z,95664.50
2022-09-30T23:27:57.883Z,95665.38
2022-09-30T23:29:56.099Z,95681.25
2022-09-30T23:31:55.609Z,95681.00
2022-09-30T23:33:56.577Z,95677.34
2022-09-30T23:35:56.132Z,95664.38
2022-09-30T23:37:54.276Z,95666.50
2022-09-30T23:39:52.586Z,95677.63
2022-09-30T23:41:51.447Z,95675.16
2022-09-30T23:43:49.928Z,95678.72
2022-09-30T23:45:48.179Z,95662.84
2022-09-30T23:47:49.500Z,95658.84
2022-09-30T23:49:47.702Z,95670.56
2022-09-30T23:51:45.924Z,95670.31
2022-09-30T23:53:44.092Z,95668.22
2022-09-30T23:55:42.320Z,95676.44
2022-09-30T23:57:40.425Z,95670.44
2022-09-30T23:59:38.946Z,95667.63
